sensor_id;sensor_type;location;lat;lon;timestamp;pressure;altitude;pressure_sealevel;temperature;humidity
41945;BME280;63122;52.424;13.458;2023-06-10T00:00:34;100957.97;;;20.92;100.00
41945;BME280;63122;52.424;13.458;2023-06-10T00:02:49;100957.38;;;20.90;100.00
41945;BME280;63122;52.424;13.458;2023-06-10T00:04:45;100957.63;;;20.82;100.00
41945;BME280;63122;52.424;13.458;2023-06-10T00:06:40;100952.84;;;20.77;100.00
41945;BME280;63122;52.424;13.458;2023-06-10T00:08:38;100959.25;;;20.76;100.00
41945;BME280;63122;52.424;13.458;2023-06-10T00:10:35;100962.13;;;20.75;100.00
41945;BME280;63122;52.424;13.458;2023-06-10T00:12:31;100964.00;;;20.74;100.00
41945;BME280;63122;52.424;13.458;2023-06-10T00:14:29;100950.41;;;20.69;100.00
41945;BME280;63122;52.424;13.458;2023-06-10T00:16:24;100948.13;;;20.66;100.00
41945;BME280;63122;52.424;13.458;2023-06-10T00:18:22;100945.94;;;20.49;100.00
41945;BME280;63122;52.424;13.458;2023-06-10T00:20:19;100954.00;;;20.42;100.00
41945;BME280;63122;52.424;13.458;2023-06-10T00:22:15;100955.63;;;20.43;100.00
41945;BME280;63122;52.424;13.458;2023-06-10T00:24:14;100951.13;;;20.44;100.00
41945;BME280;63122;52.424;13.458;2023-06-10T00:26:09;100954.19;;;20.48;100.00
41945;BME280;63122;52.424;13.458;2023-06-10T00:28:04;100949.44;;;20.50;100.00
41945;BME280;63122;52.424;13.458;2023-06-10T00:30:00;100941.63;;;20.48;100.00
41945;BME280;63122;52.424;13.458;2023-06-10T00:31:56;100946.56;;;20.45;100.00
41945;BME280;63122;52.424;13.458;2023-06-10T00:33:52;100944.53;;;20.40;100.00
41945;BME280;63122;52.424;13.458;2023-06-10T00:35:48;100947.41;;;20.32;100.00
41945;BME280;63122;52.424;13.458;2023-06-10T00:37:43;100943.53;;;20.21;100.00
41945;BME280;63122;52.424;13.458;2023-06-10T00:39:41;100939.44;;;20.18;100.00
41945;BME280;63122;52.424;13.458;2023-06-10T00:41:36;100944.16;;;20.16;100.00
41945;BME280;63122;52.424;13.458;2023-06-10T00:43:31;100945.41;;;20.13;100.00
41945;BME280;63122;52.424;13.458;2023-06-10T00:45:27;100950.34;;;20.17;100.00
41945;BME280;63122;52.424;13.458;2023-06-10T00:47:22;100950.16;;;20.18;100.00
41945;BME280;63122;52.424;13.458;2023-06-10T00:49:18;100956.91;;;20.21;100.00
41945;BME280;63122;52.424;13.458;2023-06-10T00:51:14;100957.53;;;20.23;100.00
41945;BME280;63122;52.424;13.458;2023-06-10T00:53:10;100956.50;;;20.24;100.00
41945;BME280;63122;52.424;13.458;2023-06-10T00:55:09;100957.13;;;20.26;100.00
41945;BME280;63122;52.424;13.458;2023-06-10T00:57:04;100957.13;;;20.26;100.00
41945;BME280;63122;52.424;13.458;2023-06-10T00:59:00;100953.44;;;20.20;100.00
41945;BME280;63122;52.424;13.458;2023-06-10T01:00:56;100955.09;;;20.08;100.00
41945;BME280;63122;52.424;13.458;2023-06-10T01:02:51;100950.38;;;19.96;100.00
41945;BME280;63122;52.424;13.458;2023-06-10T01:04:48;100947.66;;;19.90;100.00
41945;BME280;63122;52.424;13.458;2023-06-10T01:06:49;100955.31;;;19.93;100.00
41945;BME280;63122;52.424;13.458;2023-06-10T01:08:52;100963.34;;;19.93;100.00
41945;BME280;63122;52.424;13.458;2023-06-10T01:10:56;100962.31;;;19.94;100.00
41945;BME280;63122;52.424;13.458;2023-06-10T01:12:56;100961.03;;;19.90;100.00
41945;BME280;63122;52.424;13.458;2023-06-10T01:14:55;100964.97;;;19.87;100.00
41945;BME280;63122;52.424;13.458;2023-06-10T01:16:51;100962.28;;;19.80;100.00
41945;BME280;63122;52.424;13.458;2023-06-10T01:18:47;100962.28;;;19.74;100.00
41945;BME280;63122;52.424;13.458;2023-06-10T01:20:43;100967.63;;;19.74;100.00
41945;BME280;63122;52.424;13.458;2023-06-10T01:22:45;100961.06;;;19.76;100.00
41945;BME280;63122;52.424;13.458;2023-06-10T01:24:40;100960.63;;;19.73;100.00
41945;BME280;63122;52.424;13.458;2023-06-10T01:26:36;100972.78;;;19.68;100.00
41945;BME280;63122;52.424;13.458;2023-06-10T01:28:38;100962.06;;;19.68;100.00
41945;BME280;63122;52.424;13.458;2023-06-10T01:30:41;100971.75;;;19.69;100.00
41945;BME280;63122;52.424;13.458;2023-06-10T01:32:43;100963.91;;;19.68;100.00
41945;BME280;63122;52.424;13.458;2023-06-10T01:34:42;100966.59;;;19.68;100.00
41945;BME280;63122;52.424;13.458;2023-06-10T01:36:39;100971.75;;;19.69;100.00
41945;BME280;63122;52.424;13.458;2023-06-10T01:38:40;100969.69;;;19.71;100.00
41945;BME280;63122;52.424;13.458;2023-06-10T01:40:37;100971.13;;;19.67;100.00
41945;BME280;63122;52.424;13.458;2023-06-10T01:42:34;100975.44;;;19.62;100.00
41945;BME280;63122;52.424;13.458;2023-06-10T01:44:29;100974.63;;;19.54;100.00
41945;BME280;63122;52.424;13.458;2023-06-10T01:46:25;100969.47;;;19.53;100.00
41945;BME280;63122;52.424;13.458;2023-06-10T01:48:20;100970.50;;;19.52;100.00
41945;BME280;63122;52.424;13.458;2023-06-10T01:50:15;100964.31;;;19.45;100.00
41945;BME280;63122;52.424;13.458;2023-06-10T01:52:11;100965.94;;;19.39;100.00
41945;BME280;63122;52.424;13.458;2023-06-10T01:54:09;100965.72;;;19.34;100.00
41945;BME280;63122;52.424;13.458;2023-06-10T01:56:09;100968.63;;;19.32;100.00
41945;BME280;63122;52.424;13.458;2023-06-10T01:58:10;100972.72;;;19.35;100.00
41945;BME280;63122;52.424;13.458;2023-06-10T02:00:07;100973.56;;;19.35;100.00
41945;BME280;63122;52.424;13.458;2023-06-10T02:02:03;100971.91;;;19.34;100.00
41945;BME280;63122;52.424;13.458;2023-06-10T02:03:59;100973.75;;;19.27;100.00
41945;BME280;63122;52.424;13.458;2023-06-10T02:05:55;100976.81;;;19.17;100.00
41945;BME280;63122;52.424;13.458;2023-06-10T02:07:51;100970.22;;;19.13;100.00
41945;BME280;63122;52.424;13.458;2023-06-10T02:09:49;100973.50;;;19.08;100.00
41945;BME280;63122;52.424;13.458;2023-06-10T02:11:45;100973.09;;;19.11;100.00
41945;BME280;63122;52.424;13.458;2023-06-10T02:13:41;100974.53;;;19.14;100.00
41945;BME280;63122;52.424;13.458;2023-06-10T02:15:37;100978.03;;;19.14;100.00
41945;BME280;63122;52.424;13.458;2023-06-10T02:17:33;100973.28;;;19.10;100.00
41945;BME280;63122;52.424;13.458;2023-06-10T02:19:33;100972.66;;;19.08;100.00
41945;BME280;63122;52.424;13.458;2023-06-10T02:21:29;100970.81;;;19.08;100.00
41945;BME280;63122;52.424;13.458;2023-06-10T02:23:26;100974.69;;;19.06;100.00
41945;BME280;63122;52.424;13.458;2023-06-10T02:25:24;100968.53;;;18.98;100.00
41945;BME280;63122;52.424;13.458;2023-06-10T02:27:20;100978.97;;;18.93;100.00
41945;BME280;63122;52.424;13.458;2023-06-10T02:29:15;100972.59;;;18.94;100.00
41945;BME280;63122;52.424;13.458;2023-06-10T02:31:11;100983.28;;;18.94;100.00
41945;BME280;63122;52.424;13.458;2023-06-10T02:33:06;100980.59;;;18.94;100.00
41945;BME280;63122;52.424;13.458;2023-06-10T02:35:02;100978.97;;;18.93;100.00
41945;BME280;63122;52.424;13.458;2023-06-10T02:36:59;100977.31;;;18.92;100.00
41945;BME280;63122;52.424;13.458;2023-06-10T02:38:55;100980.78;;;18.86;100.00
41945;BME280;63122;52.424;13.458;2023-06-10T02:40:53;100982.41;;;18.80;100.00
41945;BME280;63122;52.424;13.458;2023-06-10T02:42:49;100977.41;;;18.70;100.00
41945;BME280;63122;52.424;13.458;2023-06-10T02:44:44;100972.88;;;18.64;100.00
41945;BME280;63122;52.424;13.458;2023-06-10T02:46:40;100977.59;;;18.62;100.00
41945;BME280;63122;52.424;13.458;2023-06-10T02:48:40;100976.75;;;18.62;100.00
41945;BME280;63122;52.424;13.458;2023-06-10T02:50:36;100974.06;;;18.62;100.00
41945;BME280;63122;52.424;13.458;2023-06-10T02:52:32;100974.91;;;18.62;100.00
41945;BME280;63122;52.424;13.458;2023-06-10T02:54:28;100981.28;;;18.61;100.00
41945;BME280;63122;52.424;13.458;2023-06-10T02:56:25;100976.53;;;18.56;100.00
41945;BME280;63122;52.424;13.458;2023-06-10T02:58:21;100977.34;;;18.57;100.00
41945;BME280;63122;52.424;13.458;2023-06-10T03:00:17;100982.88;;;18.55;100.00
41945;BME280;63122;52.424;13.458;2023-06-10T03:02:14;100982.03;;;18.55;100.00
41945;BME280;63122;52.424;13.458;2023-06-10T03:04:09;100979.00;;;18.58;100.00
41945;BME280;63122;52.424;13.458;2023-06-10T03:06:06;100979.81;;;18.59;100.00
41945;BME280;63122;52.424;13.458;2023-06-10T03:08:02;100978.16;;;18.58;100.00
41945;BME280;63122;52.424;13.458;2023-06-10T03:09:57;100980.84;;;18.58;100.00
41945;BME280;63122;52.424;13.458;2023-06-10T03:11:55;100978.78;;;18.60;100.00
41945;BME280;63122;52.424;13.458;2023-06-10T03:13:51;100975.50;;;18.58;100.00
41945;BME280;63122;52.424;13.458;2023-06-10T03:15:46;100975.31;;;18.59;100.00
41945;BME280;63122;52.424;13.458;2023-06-10T03:17:41;100974.69;;;18.57;100.00
41945;BME280;63122;52.424;13.458;2023-06-10T03:19:37;100973.22;;;18.54;100.00
41945;BME280;63122;52.424;13.458;2023-06-10T03:21:32;100978.97;;;18.51;100.00
41945;BME280;63122;52.424;13.458;2023-06-10T03:23:29;100979.94;;;18.44;100.00
41945;BME280;63122;52.424;13.458;2023-06-10T03:25:25;100980.09;;;18.35;100.00
41945;BME280;63122;52.424;13.458;2023-06-10T03:27:23;100979.09;;;18.36;100.00
41945;BME280;63122;52.424;13.458;2023-06-10T03:29:21;100985.84;;;18.39;100.00
41945;BME280;63122;52.424;13.458;2023-06-10T03:31:16;100985.84;;;18.39;100.00
41945;BME280;63122;52.424;13.458;2023-06-10T03:33:12;100991.00;;;18.40;100.00
41945;BME280;63122;52.424;13.458;2023-06-10T03:35:08;100984.41;;;18.36;100.00
41945;BME280;63122;52.424;13.458;2023-06-10T03:37:05;100982.53;;;18.30;100.00
41945;BME280;63122;52.424;13.458;2023-06-10T03:39:00;100986.59;;;18.26;100.00
41945;BME280;63122;52.424;13.458;2023-06-10T03:40:56;100988.47;;;18.25;100.00
41945;BME280;63122;52.424;13.458;2023-06-10T03:42:53;100984.75;;;18.26;100.00
41945;BME280;63122;52.424;13.458;2023-06-10T03:44:49;100989.25;;;18.26;100.00
41945;BME280;63122;52.424;13.458;2023-06-10T03:46:44;100992.78;;;18.26;100.00
41945;BME280;63122;52.424;13.458;2023-06-10T03:48:39;100996.06;;;18.28;100.00
41945;BME280;63122;52.424;13.458;2023-06-10T03:50:35;100991.94;;;18.26;100.00
41945;BME280;63122;52.424;13.458;2023-06-10T03:52:30;101000.94;;;18.18;100.00
41945;BME280;63122;52.424;13.458;2023-06-10T03:54:26;101001.34;;;18.15;100.00
41945;BME280;63122;52.424;13.458;2023-06-10T03:56:21;101002.13;;;18.16;100.00
41945;BME280;63122;52.424;13.458;2023-06-10T03:58:19;101007.31;;;18.17;100.00
41945;BME280;63122;52.424;13.458;2023-06-10T04:00:15;101006.00;;;18.13;100.00
41945;BME280;63122;52.424;13.458;2023-06-10T04:02:13;101002.06;;;18.09;100.00
41945;BME280;63122;52.424;13.458;2023-06-10T04:04:09;101004.13;;;18.07;100.00
41945;BME280;63122;52.424;13.458;2023-06-10T04:06:04;101007.63;;;18.07;100.00
41945;BME280;63122;52.424;13.458;2023-06-10T04:08:00;101010.94;;;18.09;100.00
41945;BME280;63122;52.424;13.458;2023-06-10T04:09:55;101008.25;;;18.09;100.00
41945;BME280;63122;52.424;13.458;2023-06-10T04:11:50;101010.94;;;18.09;100.00
41945;BME280;63122;52.424;13.458;2023-06-10T04:13:48;101007.25;;;18.10;100.00
41945;BME280;63122;52.424;13.458;2023-06-10T04:15:44;101014.38;;;18.03;100.00
41945;BME280;63122;52.424;13.458;2023-06-10T04:17:39;101013.06;;;17.99;100.00
41945;BME280;63122;52.424;13.458;2023-06-10T04:19:35;101014.91;;;17.98;100.00
41945;BME280;63122;52.424;13.458;2023-06-10T04:21:31;101018.38;;;17.99;100.00
41945;BME280;63122;52.424;13.458;2023-06-10T04:23:26;101016.41;;;18.01;100.00
41945;BME280;63122;52.424;13.458;2023-06-10T04:25:22;101008.66;;;18.06;100.00
41945;BME280;63122;52.424;13.458;2023-06-10T04:27:18;101008.25;;;18.09;100.00
41945;BME280;63122;52.424;13.458;2023-06-10T04:29:16;101010.28;;;18.07;100.00
41945;BME280;63122;52.424;13.458;2023-06-10T04:31:11;101024.28;;;18.09;100.00
41945;BME280;63122;52.424;13.458;2023-06-10T04:33:07;101028.38;;;18.12;100.00
41945;BME280;63122;52.424;13.458;2023-06-10T04:35:02;101022.69;;;18.15;100.00
41945;BME280;63122;52.424;13.458;2023-06-10T04:36:58;101026.56;;;18.12;100.00
41945;BME280;63122;52.424;13.458;2023-06-10T04:38:54;101026.31;;;18.07;100.00
41945;BME280;63122;52.424;13.458;2023-06-10T04:40:49;101036.59;;;18.10;100.00
41945;BME280;63122;52.424;13.458;2023-06-10T04:42:44;101040.28;;;18.09;100.00
41945;BME280;63122;52.424;13.458;2023-06-10T04:44:42;101030.38;;;18.03;100.00
41945;BME280;63122;52.424;13.458;2023-06-10T04:46:38;101036.91;;;18.01;100.00
41945;BME280;63122;52.424;13.458;2023-06-10T04:48:33;101031.09;;;17.97;100.00
41945;BME280;63122;52.424;13.458;2023-06-10T04:50:30;101031.06;;;17.90;100.00
41945;BME280;63122;52.424;13.458;2023-06-10T04:52:25;101029.97;;;17.84;100.00
41945;BME280;63122;52.424;13.458;2023-06-10T04:54:20;101031.00;;;17.83;100.00
41945;BME280;63122;52.424;13.458;2023-06-10T04:56:15;101051.88;;;17.80;100.00
41945;BME280;63122;52.424;13.458;2023-06-10T04:58:11;101045.09;;;17.77;100.00
41945;BME280;63122;52.424;13.458;2023-06-10T05:00:11;101038.38;;;17.81;100.00
41945;BME280;63122;52.424;13.458;2023-06-10T05:02:06;101042.47;;;17.84;100.00
41945;BME280;63122;52.424;13.458;2023-06-10T05:04:02;101039.25;;;17.89;100.00
41945;BME280;63122;52.424;13.458;2023-06-10T05:05:57;101042.38;;;17.92;100.00
41945;BME280;63122;52.424;13.458;2023-06-10T05:07:52;101035.81;;;17.95;100.00
41945;BME280;63122;52.424;13.458;2023-06-10T05:09:48;101032.72;;;17.91;100.00
41945;BME280;63122;52.424;13.458;2023-06-10T05:11:43;101039.88;;;17.91;100.00
41945;BME280;63122;52.424;13.458;2023-06-10T05:13:38;101041.78;;;17.97;100.00
41945;BME280;63122;52.424;13.458;2023-06-10T05:15:37;101038.19;;;18.05;100.00
41945;BME280;63122;52.424;13.458;2023-06-10T05:17:36;101042.75;;;18.11;100.00
41945;BME280;63122;52.424;13.458;2023-06-10T05:19:32;101050.81;;;18.18;100.00
41945;BME280;63122;52.424;13.458;2023-06-10T05:21:27;101051.06;;;18.23;100.00
41945;BME280;63122;52.424;13.458;2023-06-10T05:23:23;101049.00;;;18.18;100.00
41945;BME280;63122;52.424;13.458;2023-06-10T05:25:18;101047.69;;;18.14;100.00
41945;BME280;63122;52.424;13.458;2023-06-10T05:27:13;101044.22;;;18.13;100.00
41945;BME280;63122;52.424;13.458;2023-06-10T05:29:09;101041.38;;;18.15;100.00
41945;BME280;63122;52.424;13.458;2023-06-10T05:31:07;101056.78;;;18.20;100.00
41945;BME280;63122;52.424;13.458;2023-06-10T05:33:03;101054.56;;;18.23;100.00
41945;BME280;63122;52.424;13.458;2023-06-10T05:34:58;101052.31;;;18.27;100.00
41945;BME280;63122;52.424;13.458;2023-06-10T05:36:56;101059.31;;;18.28;100.00
41945;BME280;63122;52.424;13.458;2023-06-10T05:38:51;101050.69;;;18.26;100.00
41945;BME280;63122;52.424;13.458;2023-06-10T05:40:46;101056.84;;;18.26;100.00
41945;BME280;63122;52.424;13.458;2023-06-10T05:42:42;101052.31;;;18.27;100.00
41945;BME280;63122;52.424;13.458;2023-06-10T05:44:37;101046.81;;;18.28;100.00
41945;BME280;63122;52.424;13.458;2023-06-10T05:46:35;101045.84;;;18.36;100.00
41945;BME280;63122;52.424;13.458;2023-06-10T05:48:31;101043.41;;;18.41;100.00
41945;BME280;63122;52.424;13.458;2023-06-10T05:50:26;101050.63;;;18.48;100.00
41945;BME280;63122;52.424;13.458;2023-06-10T05:52:21;101047.41;;;18.52;100.00
41945;BME280;63122;52.424;13.458;2023-06-10T05:54:17;101054.16;;;18.55;100.00
41945;BME280;63122;52.424;13.458;2023-06-10T05:56:12;101059.78;;;18.60;100.00
41945;BME280;63122;52.424;13.458;2023-06-10T05:58:08;101062.06;;;18.63;100.00
41945;BME280;63122;52.424;13.458;2023-06-10T06:00:05;101055.88;;;18.63;100.00
41945;BME280;63122;52.424;13.458;2023-06-10T06:02:05;101050.97;;;18.66;100.00
41945;BME280;63122;52.424;13.458;2023-06-10T06:04:00;101052.84;;;18.73;100.00
41945;BME280;63122;52.424;13.458;2023-06-10T06:05:56;101055.13;;;18.76;100.00
41945;BME280;63122;52.424;13.458;2023-06-10T06:07:51;101051.88;;;18.80;100.00
41945;BME280;63122;52.424;13.458;2023-06-10T06:09:46;101057.91;;;18.89;100.00
41945;BME280;63122;52.424;13.458;2023-06-10T06:11:42;101058.75;;;18.96;100.00
41945;BME280;63122;52.424;13.458;2023-06-10T06:13:55;101062.31;;;19.04;100.00
41945;BME280;63122;52.424;13.458;2023-06-10T06:15:51;101061.09;;;19.06;100.00
41945;BME280;63122;52.424;13.458;2023-06-10T06:17:49;101061.75;;;19.15;100.00
41945;BME280;63122;52.424;13.458;2023-06-10T06:19:45;101065.47;;;19.21;100.00
41945;BME280;63122;52.424;13.458;2023-06-10T06:21:41;101067.53;;;19.25;100.00
41945;BME280;63122;52.424;13.458;2023-06-10T06:23:49;101071.50;;;19.36;100.00
41945;BME280;63122;52.424;13.458;2023-06-10T06:25:44;101067.81;;;19.44;100.00
41945;BME280;63122;52.424;13.458;2023-06-10T06:27:39;101070.50;;;19.51;100.00
41945;BME280;63122;52.424;13.458;2023-06-10T06:29:35;101073.00;;;19.52;100.00
41945;BME280;63122;52.424;13.458;2023-06-10T06:31:31;101071.78;;;19.55;100.00
41945;BME280;63122;52.424;13.458;2023-06-10T06:33:29;101074.66;;;19.60;100.00
41945;BME280;63122;52.424;13.458;2023-06-10T06:35:24;101075.28;;;19.62;100.00
41945;BME280;63122;52.424;13.458;2023-06-10T06:37:21;101078.78;;;19.63;100.00
41945;BME280;63122;52.424;13.458;2023-06-10T06:39:16;101079.19;;;19.66;100.00
41945;BME280;63122;52.424;13.458;2023-06-10T06:41:11;101088.28;;;19.72;100.00
41945;BME280;63122;52.424;13.458;2023-06-10T06:43:06;101084.97;;;19.77;100.00
41945;BME280;63122;52.424;13.458;2023-06-10T06:45:02;101087.25;;;19.80;100.00
41945;BME280;63122;52.424;13.458;2023-06-10T06:46:57;101087.88;;;19.82;100.00
41945;BME280;63122;52.424;13.458;2023-06-10T06:48:55;101092.84;;;19.85;100.00
41945;BME280;63122;52.424;13.458;2023-06-10T06:50:51;101095.09;;;19.88;100.00
41945;BME280;63122;52.424;13.458;2023-06-10T06:52:48;101096.38;;;19.92;100.00
41945;BME280;63122;52.424;13.458;2023-06-10T06:54:43;101095.97;;;19.95;100.00
41945;BME280;63122;52.424;13.458;2023-06-10T06:56:39;101100.28;;;19.96;100.00
41945;BME280;63122;52.424;13.458;2023-06-10T06:58:34;101092.06;;;19.98;100.00
41945;BME280;63122;52.424;13.458;2023-06-10T07:00:29;101094.97;;;20.03;100.00
41945;BME280;63122;52.424;13.458;2023-06-10T07:02:25;101094.31;;;20.08;100.00
41945;BME280;63122;52.424;13.458;2023-06-10T07:04:23;101100.94;;;20.12;100.00
41945;BME280;63122;52.424;13.458;2023-06-10T07:06:18;101098.25;;;20.19;100.00
41945;BME280;63122;52.424;13.458;2023-06-10T07:08:13;101098.88;;;20.21;100.00
41945;BME280;63122;52.424;13.458;2023-06-10T07:10:09;101098.44;;;20.24;100.00
41945;BME280;63122;52.424;13.458;2023-06-10T07:12:05;101101.97;;;20.24;100.00
41945;BME280;63122;52.424;13.458;2023-06-10T07:14:01;101106.28;;;20.25;100.00
41945;BME280;63122;52.424;13.458;2023-06-10T07:15:56;101102.59;;;20.26;100.00
41945;BME280;63122;52.424;13.458;2023-06-10T07:17:51;101108.56;;;20.28;100.00
41945;BME280;63122;52.424;13.458;2023-06-10T07:19:50;101105.88;;;20.28;100.00
41945;BME280;63122;52.424;13.458;2023-06-10T07:21:49;101108.97;;;20.25;100.00
41945;BME280;63122;52.424;13.458;2023-06-10T07:23:46;101107.53;;;20.36;100.00
41945;BME280;63122;52.424;13.458;2023-06-10T07:25:42;101109.19;;;20.44;100.00
41945;BME280;63122;52.424;13.458;2023-06-10T07:27:37;101112.47;;;20.46;100.00
41945;BME280;63122;52.424;13.458;2023-06-10T07:29:32;101114.13;;;20.47;100.00
41945;BME280;63122;52.424;13.458;2023-06-10T07:31:27;101118.66;;;20.53;100.00
41945;BME280;63122;52.424;13.458;2023-06-10T07:33:23;101117.63;;;20.54;100.00
41945;BME280;63122;52.424;13.458;2023-06-10T07:35:21;101121.13;;;20.62;100.00
41945;BME280;63122;52.424;13.458;2023-06-10T07:37:17;101118.44;;;20.68;100.00
41945;BME280;63122;52.424;13.458;2023-06-10T07:39:12;101123.19;;;20.73;100.00
41945;BME280;63122;52.424;13.458;2023-06-10T07:41:07;101122.53;;;20.78;100.00
41945;BME280;63122;52.424;13.458;2023-06-10T07:43:03;101122.19;;;20.81;100.00
41945;BME280;63122;52.424;13.458;2023-06-10T07:44:59;101118.00;;;20.78;100.00
41945;BME280;63122;52.424;13.458;2023-06-10T07:46:54;101120.13;;;20.83;100.00
41945;BME280;63122;52.424;13.458;2023-06-10T07:48:51;101118.25;;;20.83;100.00
41945;BME280;63122;52.424;13.458;2023-06-10T07:50:49;101120.31;;;20.88;100.00
41945;BME280;63122;52.424;13.458;2023-06-10T07:52:44;101124.81;;;20.88;100.00
41945;BME280;63122;52.424;13.458;2023-06-10T07:54:39;101120.06;;;20.96;100.00
41945;BME280;63122;52.424;13.458;2023-06-10T07:56:35;101115.09;;;21.07;100.00
41945;BME280;63122;52.424;13.458;2023-06-10T07:58:30;101120.41;;;21.20;100.00
41945;BME280;63122;52.424;13.458;2023-06-10T08:00:25;101118.34;;;21.22;100.00
41945;BME280;63122;52.424;13.458;2023-06-10T08:02:20;101119.97;;;21.30;100.00
41945;BME280;63122;52.424;13.458;2023-06-10T08:04:17;101115.84;;;21.34;100.00
41945;BME280;63122;52.424;13.458;2023-06-10T08:06:15;101117.22;;;21.43;100.00
41945;BME280;63122;52.424;13.458;2023-06-10T08:08:10;101112.44;;;21.52;100.00
41945;BME280;63122;52.424;13.458;2023-06-10T08:10:07;101118.84;;;21.51;100.00
41945;BME280;63122;52.424;13.458;2023-06-10T08:12:03;101120.03;;;21.62;100.00
41945;BME280;63122;52.424;13.458;2023-06-10T08:13:59;101115.03;;;21.72;100.00
41945;BME280;63122;52.424;13.458;2023-06-10T08:15:54;101119.78;;;21.77;100.00
41945;BME280;63122;52.424;13.458;2023-06-10T08:17:49;101118.09;;;21.83;100.00
41945;BME280;63122;52.424;13.458;2023-06-10T08:19:47;101122.00;;;21.87;100.00
41945;BME280;63122;52.424;13.458;2023-06-10T08:21:45;101125.69;;;21.93;100.00
41945;BME280;63122;52.424;13.458;2023-06-10T08:23:41;101130.22;;;21.92;100.00
41945;BME280;63122;52.424;13.458;2023-06-10T08:25:36;101129.97;;;22.00;100.00
41945;BME280;63122;52.424;13.458;2023-06-10T08:27:31;101124.38;;;22.02;100.00
41945;BME280;63122;52.424;13.458;2023-06-10T08:29:26;101131.16;;;22.05;100.00
41945;BME280;63122;52.424;13.458;2023-06-10T08:31:23;101134.66;;;22.12;100.00
41945;BME280;63122;52.424;13.458;2023-06-10T08:33:18;101131.47;;;22.22;100.00
41945;BME280;63122;52.424;13.458;2023-06-10T08:35:14;101124.03;;;22.24;100.00
41945;BME280;63122;52.424;13.458;2023-06-10T08:37:12;101127.75;;;22.23;100.00
41945;BME280;63122;52.424;13.458;2023-06-10T08:39:07;101131.22;;;22.30;100.00
41945;BME280;63122;52.424;13.458;2023-06-10T08:41:05;101132.84;;;22.31;100.00
41945;BME280;63122;52.424;13.458;2023-06-10T08:43:05;101133.75;;;22.50;100.00
41945;BME280;63122;52.424;13.458;2023-06-10T08:45:01;101137.44;;;22.56;100.00
41945;BME280;63122;52.424;13.458;2023-06-10T08:46:59;101141.91;;;22.62;100.00
41945;BME280;63122;52.424;13.458;2023-06-10T08:48:55;101150.16;;;22.67;100.00
41945;BME280;63122;52.424;13.458;2023-06-10T08:50:56;101137.44;;;22.75;100.00
41945;BME280;63122;52.424;13.458;2023-06-10T08:52:57;101150.84;;;22.81;100.00
41945;BME280;63122;52.424;13.458;2023-06-10T08:54:59;101155.88;;;22.96;nan
41945;BME280;63122;52.424;13.458;2023-06-10T08:56:59;101145.03;;;23.03;98.06
41945;BME280;63122;52.424;13.458;2023-06-10T08:58:55;101143.41;;;23.02;99.99
41945;BME280;63122;52.424;13.458;2023-06-10T09:00:51;101149.31;;;23.11;96.91
41945;BME280;63122;52.424;13.458;2023-06-10T09:02:47;101151.16;;;23.10;100.00
41945;BME280;63122;52.424;13.458;2023-06-10T09:04:45;101142.38;;;23.22;99.87
41945;BME280;63122;52.424;13.458;2023-06-10T09:06:41;101134.00;;;23.30;100.00
41945;BME280;63122;52.424;13.458;2023-06-10T09:08:40;101136.97;;;23.40;97.56
41945;BME280;63122;52.424;13.458;2023-06-10T09:10:36;101132.72;;;23.51;96.67
41945;BME280;63122;52.424;13.458;2023-06-10T09:12:31;101132.16;;;23.61;96.33
41945;BME280;63122;52.424;13.458;2023-06-10T09:14:27;101127.97;;;23.65;97.95
41945;BME280;63122;52.424;13.458;2023-06-10T09:16:23;101136.56;;;23.74;96.84
41945;BME280;63122;52.424;13.458;2023-06-10T09:18:18;101122.63;;;23.77;95.18
41945;BME280;63122;52.424;13.458;2023-06-10T09:20:14;101123.59;;;23.83;94.35
41945;BME280;63122;52.424;13.458;2023-06-10T09:22:09;101123.00;;;23.81;93.06
41945;BME280;63122;52.424;13.458;2023-06-10T09:24:08;101130.66;;;23.96;90.99
41945;BME280;63122;52.424;13.458;2023-06-10T09:26:08;101126.66;;;23.98;88.00
41945;BME280;63122;52.424;13.458;2023-06-10T09:28:04;101117.53;;;23.99;89.18
41945;BME280;63122;52.424;13.458;2023-06-10T09:30:00;101126.72;;;24.10;91.09
41945;BME280;63122;52.424;13.458;2023-06-10T09:31:55;101129.69;;;24.21;88.27
41945;BME280;63122;52.424;13.458;2023-06-10T09:33:51;101132.03;;;24.29;85.43
41945;BME280;63122;52.424;13.458;2023-06-10T09:35:47;101127.13;;;24.38;84.92
41945;BME280;63122;52.424;13.458;2023-06-10T09:37:44;101127.38;;;24.60;82.85
41945;BME280;63122;52.424;13.458;2023-06-10T09:39:42;101129.47;;;24.58;82.02
41945;BME280;63122;52.424;13.458;2023-06-10T09:41:40;101132.41;;;24.56;80.32
41945;BME280;63122;52.424;13.458;2023-06-10T09:43:40;101129.38;;;24.65;79.89
41945;BME280;63122;52.424;13.458;2023-06-10T09:45:36;101126.19;;;24.68;79.25
41945;BME280;63122;52.424;13.458;2023-06-10T09:47:31;101124.47;;;24.85;78.29
41945;BME280;63122;52.424;13.458;2023-06-10T09:49:29;101127.03;;;24.92;78.49
41945;BME280;63122;52.424;13.458;2023-06-10T09:51:24;101125.47;;;24.96;72.65
41945;BME280;63122;52.424;13.458;2023-06-10T09:53:20;101128.31;;;25.01;70.84